sensor_id;sensor_type;location;lat;lon;timestamp;P1;durP1;ratioP1;P2;durP2;ratioP2
4278;SDS011;2153;47.744;10.580;2022-10-26T00:02:05;12.20;;;2.10;;
4278;SDS011;2153;47.744;10.580;2022-10-26T00:04:33;13.30;;;2.53;;
4278;SDS011;2153;47.744;10.580;2022-10-26T00:07:00;13.57;;;2.57;;
4278;SDS011;2153;47.744;10.580;2022-10-26T00:09:26;14.20;;;3.07;;
4278;SDS011;2153;47.744;10.580;2022-10-26T00:11:53;14.83;;;3.10;;
4278;SDS011;2153;47.744;10.580;2022-10-26T00:14:20;12.60;;;2.67;;
4278;SDS011;2153;47.744;10.580;2022-10-26T00:16:48;14.97;;;3.03;;
4278;SDS011;2153;47.744;10.580;2022-10-26T00:19:15;15.90;;;3.37;;
4278;SDS011;2153;47.744;10.580;2022-10-26T00:21:41;21.10;;;3.77;;
4278;SDS011;2153;47.744;10.580;2022-10-26T00:24:09;13.03;;;2.80;;
4278;SDS011;2153;47.744;10.580;2022-10-26T00:26:36;14.50;;;3.53;;
4278;SDS011;2153;47.744;10.580;2022-10-26T00:29:03;19.83;;;2.80;;
4278;SDS011;2153;47.744;10.580;2022-10-26T00:31:30;19.83;;;3.53;;
4278;SDS011;2153;47.744;10.580;2022-10-26T00:33:58;16.07;;;2.83;;
4278;SDS011;2153;47.744;10.580;2022-10-26T00:36:25;16.60;;;3.40;;
4278;SDS011;2153;47.744;10.580;2022-10-26T00:38:53;14.83;;;3.20;;
4278;SDS011;2153;47.744;10.580;2022-10-26T00:41:21;18.73;;;3.47;;
4278;SDS011;2153;47.744;10.580;2022-10-26T00:43:49;17.53;;;3.20;;
4278;SDS011;2153;47.744;10.580;2022-10-26T00:46:17;13.00;;;2.60;;
4278;SDS011;2153;47.744;10.580;2022-10-26T00:48:48;16.43;;;2.77;;
4278;SDS011;2153;47.744;10.580;2022-10-26T00:51:21;17.87;;;2.90;;
4278;SDS011;2153;47.744;10.580;2022-10-26T00:53:51;15.00;;;2.40;;
4278;SDS011;2153;47.744;10.580;2022-10-26T00:56:19;13.40;;;2.90;;
4278;SDS011;2153;47.744;10.580;2022-10-26T00:58:46;20.10;;;3.20;;
4278;SDS011;2153;47.744;10.580;2022-10-26T01:01:13;13.40;;;3.10;;
4278;SDS011;2153;47.744;10.580;2022-10-26T01:03:41;18.10;;;2.80;;
4278;SDS011;2153;47.744;10.580;2022-10-26T01:06:08;12.10;;;2.40;;
4278;SDS011;2153;47.744;10.580;2022-10-26T01:08:38;16.30;;;3.00;;
4278;SDS011;2153;47.744;10.580;2022-10-26T01:11:05;15.53;;;2.60;;
4278;SDS011;2153;47.744;10.580;2022-10-26T01:13:32;13.60;;;2.73;;
4278;SDS011;2153;47.744;10.580;2022-10-26T01:16:03;14.00;;;2.47;;
4278;SDS011;2153;47.744;10.580;2022-10-26T01:18:44;12.63;;;2.10;;
4278;SDS011;2153;47.744;10.580;2022-10-26T01:21:20;13.20;;;2.50;;
4278;SDS011;2153;47.744;10.580;2022-10-26T01:27:11;17.17;;;3.07;;
4278;SDS011;2153;47.744;10.580;2022-10-26T01:33:08;15.73;;;2.90;;
4278;SDS011;2153;47.744;10.580;2022-10-26T01:35:43;13.87;;;3.10;;
4278;SDS011;2153;47.744;10.580;2022-10-26T01:38:17;13.87;;;2.70;;
4278;SDS011;2153;47.744;10.580;2022-10-26T01:40:50;16.67;;;3.10;;
4278;SDS011;2153;47.744;10.580;2022-10-26T01:43:23;15.00;;;2.63;;
4278;SDS011;2153;47.744;10.580;2022-10-26T01:45:55;11.93;;;1.83;;
4278;SDS011;2153;47.744;10.580;2022-10-26T01:48:23;16.30;;;1.93;;
4278;SDS011;2153;47.744;10.580;2022-10-26T01:50:52;18.00;;;3.00;;
4278;SDS011;2153;47.744;10.580;2022-10-26T01:53:22;12.57;;;2.40;;
4278;SDS011;2153;47.744;10.580;2022-10-26T01:55:52;15.90;;;2.50;;
4278;SDS011;2153;47.744;10.580;2022-10-26T01:58:26;15.00;;;2.30;;
4278;SDS011;2153;47.744;10.580;2022-10-26T02:01:29;18.43;;;2.27;;
4278;SDS011;2153;47.744;10.580;2022-10-26T02:04:07;12.70;;;2.00;;
4278;SDS011;2153;47.744;10.580;2022-10-26T02:06:44;13.50;;;1.90;;
4278;SDS011;2153;47.744;10.580;2022-10-26T02:09:19;11.20;;;1.67;;
4278;SDS011;2153;47.744;10.580;2022-10-26T02:11:53;15.17;;;1.87;;
4278;SDS011;2153;47.744;10.580;2022-10-26T02:14:23;13.30;;;1.90;;
4278;SDS011;2153;47.744;10.580;2022-10-26T02:17:01;12.50;;;1.73;;
4278;SDS011;2153;47.744;10.580;2022-10-26T02:19:35;13.17;;;3.20;;
4278;SDS011;2153;47.744;10.580;2022-10-26T02:22:08;14.83;;;1.80;;
4278;SDS011;2153;47.744;10.580;2022-10-26T02:24:39;13.43;;;3.33;;
4278;SDS011;2153;47.744;10.580;2022-10-26T02:27:08;11.43;;;1.60;;
4278;SDS011;2153;47.744;10.580;2022-10-26T02:29:40;13.23;;;1.50;;
4278;SDS011;2153;47.744;10.580;2022-10-26T02:32:10;11.23;;;1.43;;
4278;SDS011;2153;47.744;10.580;2022-10-26T02:34:38;13.30;;;1.60;;
4278;SDS011;2153;47.744;10.580;2022-10-26T02:37:08;18.00;;;1.73;;
4278;SDS011;2153;47.744;10.580;2022-10-26T02:39:35;14.07;;;1.70;;
4278;SDS011;2153;47.744;10.580;2022-10-26T02:42:05;11.33;;;1.70;;
4278;SDS011;2153;47.744;10.580;2022-10-26T02:44:35;11.90;;;1.70;;
4278;SDS011;2153;47.744;10.580;2022-10-26T02:47:06;12.00;;;1.90;;
4278;SDS011;2153;47.744;10.580;2022-10-26T02:49:35;12.20;;;1.80;;
4278;SDS011;2153;47.744;10.580;2022-10-26T02:52:03;13.77;;;1.70;;
4278;SDS011;2153;47.744;10.580;2022-10-26T02:54:39;12.87;;;1.90;;
4278;SDS011;2153;47.744;10.580;2022-10-26T02:57:13;12.77;;;1.80;;
4278;SDS011;2153;47.744;10.580;2022-10-26T02:59:44;12.90;;;1.87;;
4278;SDS011;2153;47.744;10.580;2022-10-26T03:02:12;12.57;;;1.60;;
4278;SDS011;2153;47.744;10.580;2022-10-26T03:04:42;11.80;;;1.90;;
4278;SDS011;2153;47.744;10.580;2022-10-26T03:07:09;14.23;;;1.60;;
4278;SDS011;2153;47.744;10.580;2022-10-26T03:09:36;15.70;;;1.90;;
4278;SDS011;2153;47.744;10.580;2022-10-26T03:12:03;17.23;;;1.67;;
4278;SDS011;2153;47.744;10.580;2022-10-26T03:14:30;11.30;;;1.53;;
4278;SDS011;2153;47.744;10.580;2022-10-26T03:16:57;12.77;;;2.00;;
4278;SDS011;2153;47.744;10.580;2022-10-26T03:19:24;13.73;;;1.60;;
4278;SDS011;2153;47.744;10.580;2022-10-26T03:21:52;13.53;;;1.90;;
4278;SDS011;2153;47.744;10.580;2022-10-26T03:24:19;12.70;;;1.67;;
4278;SDS011;2153;47.744;10.580;2022-10-26T03:26:45;12.33;;;1.50;;
4278;SDS011;2153;47.744;10.580;2022-10-26T03:29:12;11.90;;;1.53;;
4278;SDS011;2153;47.744;10.580;2022-10-26T03:31:39;12.20;;;2.00;;
4278;SDS011;2153;47.744;10.580;2022-10-26T03:34:06;11.30;;;1.50;;
4278;SDS011;2153;47.744;10.580;2022-10-26T03:36:32;13.50;;;1.80;;
4278;SDS011;2153;47.744;10.580;2022-10-26T03:39:00;12.10;;;1.83;;
4278;SDS011;2153;47.744;10.580;2022-10-26T03:41:27;14.47;;;1.80;;
4278;SDS011;2153;47.744;10.580;2022-10-26T03:43:54;11.67;;;1.83;;
4278;SDS011;2153;47.744;10.580;2022-10-26T03:46:21;11.97;;;1.87;;
4278;SDS011;2153;47.744;10.580;2022-10-26T03:48:47;12.60;;;1.80;;
4278;SDS011;2153;47.744;10.580;2022-10-26T03:51:14;15.00;;;2.00;;
4278;SDS011;2153;47.744;10.580;2022-10-26T03:53:41;18.00;;;2.20;;
4278;SDS011;2153;47.744;10.580;2022-10-26T03:56:09;17.20;;;2.17;;
4278;SDS011;2153;47.744;10.580;2022-10-26T03:58:36;13.33;;;2.50;;
4278;SDS011;2153;47.744;10.580;2022-10-26T04:01:02;15.43;;;2.20;;
4278;SDS011;2153;47.744;10.580;2022-10-26T04:03:29;17.10;;;2.77;;
4278;SDS011;2153;47.744;10.580;2022-10-26T04:05:58;11.37;;;1.77;;
4278;SDS011;2153;47.744;10.580;2022-10-26T04:08:25;13.00;;;2.30;;
4278;SDS011;2153;47.744;10.580;2022-10-26T04:10:52;31.20;;;6.70;;
4278;SDS011;2153;47.744;10.580;2022-10-26T04:13:20;15.77;;;3.30;;
4278;SDS011;2153;47.744;10.580;2022-10-26T04:15:47;14.70;;;1.40;;
4278;SDS011;2153;47.744;10.580;2022-10-26T04:18:14;12.80;;;1.53;;
4278;SDS011;2153;47.744;10.580;2022-10-26T04:20:41;11.67;;;1.50;;
4278;SDS011;2153;47.744;10.580;2022-10-26T04:23:08;11.03;;;1.20;;
4278;SDS011;2153;47.744;10.580;2022-10-26T04:25:37;11.40;;;1.27;;
4278;SDS011;2153;47.744;10.580;2022-10-26T04:28:04;11.80;;;1.53;;
4278;SDS011;2153;47.744;10.580;2022-10-26T04:30:34;15.00;;;2.37;;
4278;SDS011;2153;47.744;10.580;2022-10-26T04:33:01;12.60;;;1.53;;
4278;SDS011;2153;47.744;10.580;2022-10-26T04:35:29;12.27;;;1.70;;
4278;SDS011;2153;47.744;10.580;2022-10-26T04:37:57;12.73;;;1.57;;
4278;SDS011;2153;47.744;10.580;2022-10-26T04:40:24;27.53;;;1.67;;
4278;SDS011;2153;47.744;10.580;2022-10-26T04:42:51;11.10;;;1.20;;
4278;SDS011;2153;47.744;10.580;2022-10-26T04:45:18;14.00;;;1.60;;
4278;SDS011;2153;47.744;10.580;2022-10-26T04:47:46;17.97;;;1.60;;
4278;SDS011;2153;47.744;10.580;2022-10-26T04:50:12;11.70;;;1.83;;
4278;SDS011;2153;47.744;10.580;2022-10-26T04:52:39;11.70;;;1.50;;
4278;SDS011;2153;47.744;10.580;2022-10-26T04:55:06;11.90;;;1.70;;
4278;SDS011;2153;47.744;10.580;2022-10-26T04:57:33;11.13;;;1.50;;
4278;SDS011;2153;47.744;10.580;2022-10-26T05:00:01;13.83;;;1.70;;
4278;SDS011;2153;47.744;10.580;2022-10-26T05:02:29;18.83;;;1.90;;
4278;SDS011;2153;47.744;10.580;2022-10-26T05:04:58;13.23;;;1.83;;
4278;SDS011;2153;47.744;10.580;2022-10-26T05:07:24;17.43;;;2.13;;
4278;SDS011;2153;47.744;10.580;2022-10-26T05:09:51;16.40;;;2.00;;
4278;SDS011;2153;47.744;10.580;2022-10-26T05:12:18;12.50;;;1.93;;
4278;SDS011;2153;47.744;10.580;2022-10-26T05:14:45;13.70;;;2.23;;
4278;SDS011;2153;47.744;10.580;2022-10-26T05:17:12;13.07;;;2.10;;
4278;SDS011;2153;47.744;10.580;2022-10-26T05:19:38;12.27;;;1.90;;
4278;SDS011;2153;47.744;10.580;2022-10-26T05:22:07;11.70;;;1.80;;
4278;SDS011;2153;47.744;10.580;2022-10-26T05:24:33;13.00;;;1.73;;
4278;SDS011;2153;47.744;10.580;2022-10-26T05:27:00;13.20;;;1.40;;
4278;SDS011;2153;47.744;10.580;2022-10-26T05:29:27;13.50;;;2.10;;
4278;SDS011;2153;47.744;10.580;2022-10-26T05:31:54;13.87;;;2.10;;
4278;SDS011;2153;47.744;10.580;2022-10-26T05:34:20;12.17;;;1.73;;
4278;SDS011;2153;47.744;10.580;2022-10-26T05:36:47;13.80;;;1.90;;
4278;SDS011;2153;47.744;10.580;2022-10-26T05:39:15;19.00;;;2.53;;
4278;SDS011;2153;47.744;10.580;2022-10-26T05:41:42;13.77;;;2.23;;
4278;SDS011;2153;47.744;10.580;2022-10-26T05:44:09;13.87;;;1.97;;
4278;SDS011;2153;47.744;10.580;2022-10-26T05:46:35;14.20;;;1.90;;
4278;SDS011;2153;47.744;10.580;2022-10-26T05:49:02;13.30;;;1.50;;
4278;SDS011;2153;47.744;10.580;2022-10-26T05:51:31;13.83;;;1.70;;
4278;SDS011;2153;47.744;10.580;2022-10-26T05:53:58;16.07;;;1.90;;
4278;SDS011;2153;47.744;10.580;2022-10-26T05:56:32;12.90;;;1.70;;
4278;SDS011;2153;47.744;10.580;2022-10-26T05:59:01;15.83;;;2.10;;
4278;SDS011;2153;47.744;10.580;2022-10-26T06:01:30;15.30;;;1.73;;
4278;SDS011;2153;47.744;10.580;2022-10-26T06:04:08;11.30;;;1.50;;
4278;SDS011;2153;47.744;10.580;2022-10-26T06:06:44;11.60;;;1.57;;
4278;SDS011;2153;47.744;10.580;2022-10-26T06:09:12;14.63;;;1.43;;
4278;SDS011;2153;47.744;10.580;2022-10-26T06:11:41;11.30;;;1.47;;
4278;SDS011;2153;47.744;10.580;2022-10-26T06:14:09;12.00;;;1.43;;
4278;SDS011;2153;47.744;10.580;2022-10-26T06:16:38;13.50;;;1.40;;
4278;SDS011;2153;47.744;10.580;2022-10-26T06:19:18;11.60;;;1.50;;
4278;SDS011;2153;47.744;10.580;2022-10-26T06:22:00;17.03;;;1.60;;
4278;SDS011;2153;47.744;10.580;2022-10-26T06:24:37;13.53;;;2.77;;
4278;SDS011;2153;47.744;10.580;2022-10-26T06:27:14;13.33;;;2.40;;
4278;SDS011;2153;47.744;10.580;2022-10-26T06:29:48;16.13;;;2.50;;
4278;SDS011;2153;47.744;10.580;2022-10-26T06:32:24;13.80;;;3.50;;
4278;SDS011;2153;47.744;10.580;2022-10-26T06:34:51;15.50;;;2.70;;
4278;SDS011;2153;47.744;10.580;2022-10-26T06:37:27;15.60;;;2.10;;
4278;SDS011;2153;47.744;10.580;2022-10-26T06:39:55;12.20;;;1.77;;
4278;SDS011;2153;47.744;10.580;2022-10-26T06:42:25;12.87;;;1.70;;
4278;SDS011;2153;47.744;10.580;2022-10-26T06:44:52;13.50;;;1.87;;
4278;SDS011;2153;47.744;10.580;2022-10-26T06:47:20;11.90;;;1.50;;
4278;SDS011;2153;47.744;10.580;2022-10-26T06:49:55;16.90;;;1.90;;
4278;SDS011;2153;47.744;10.580;2022-10-26T06:52:27;13.20;;;2.10;;
4278;SDS011;2153;47.744;10.580;2022-10-26T06:54:58;16.30;;;2.20;;
4278;SDS011;2153;47.744;10.580;2022-10-26T06:57:30;14.83;;;2.10;;
4278;SDS011;2153;47.744;10.580;2022-10-26T07:00:00;15.20;;;2.17;;
4278;SDS011;2153;47.744;10.580;2022-10-26T07:02:30;18.70;;;1.90;;
4278;SDS011;2153;47.744;10.580;2022-10-26T07:04:57;11.77;;;1.47;;
4278;SDS011;2153;47.744;10.580;2022-10-26T07:07:24;15.57;;;1.40;;
4278;SDS011;2153;47.744;10.580;2022-10-26T07:09:54;14.53;;;1.77;;
4278;SDS011;2153;47.744;10.580;2022-10-26T07:12:20;13.73;;;2.20;;
4278;SDS011;2153;47.744;10.580;2022-10-26T07:14:48;14.07;;;2.03;;
4278;SDS011;2153;47.744;10.580;2022-10-26T07:17:15;14.77;;;1.70;;
4278;SDS011;2153;47.744;10.580;2022-10-26T07:19:42;16.93;;;1.90;;
4278;SDS011;2153;47.744;10.580;2022-10-26T07:22:09;13.60;;;1.97;;
4278;SDS011;2153;47.744;10.580;2022-10-26T07:24:36;12.67;;;1.90;;
4278;SDS011;2153;47.744;10.580;2022-10-26T07:27:03;12.73;;;1.57;;
4278;SDS011;2153;47.744;10.580;2022-10-26T07:29:30;15.23;;;1.73;;
4278;SDS011;2153;47.744;10.580;2022-10-26T07:31:59;17.57;;;1.70;;
4278;SDS011;2153;47.744;10.580;2022-10-26T07:34:25;14.20;;;2.70;;
4278;SDS011;2153;47.744;10.580;2022-10-26T07:36:52;12.93;;;1.70;;
4278;SDS011;2153;47.744;10.580;2022-10-26T07:39:19;13.07;;;1.60;;
4278;SDS011;2153;47.744;10.580;2022-10-26T07:41:46;14.53;;;1.70;;
4278;SDS011;2153;47.744;10.580;2022-10-26T07:44:12;14.77;;;1.50;;
4278;SDS011;2153;47.744;10.580;2022-10-26T07:46:39;14.80;;;1.80;;
4278;SDS011;2153;47.744;10.580;2022-10-26T07:49:07;14.97;;;1.70;;
4278;SDS011;2153;47.744;10.580;2022-10-26T07:51:34;16.37;;;2.03;;
4278;SDS011;2153;47.744;10.580;2022-10-26T07:54:01;14.20;;;1.70;;
4278;SDS011;2153;47.744;10.580;2022-10-26T07:56:28;18.03;;;1.83;;
4278;SDS011;2153;47.744;10.580;2022-10-26T07:58:55;14.00;;;1.77;;
4278;SDS011;2153;47.744;10.580;2022-10-26T08:01:23;14.53;;;2.13;;
4278;SDS011;2153;47.744;10.580;2022-10-26T08:03:50;21.97;;;2.50;;
4278;SDS011;2153;47.744;10.580;2022-10-26T08:06:19;18.70;;;2.03;;
4278;SDS011;2153;47.744;10.580;2022-10-26T08:08:46;17.77;;;2.40;;
4278;SDS011;2153;47.744;10.580;2022-10-26T08:11:13;14.60;;;1.87;;
4278;SDS011;2153;47.744;10.580;2022-10-26T08:13:40;12.23;;;1.17;;
4278;SDS011;2153;47.744;10.580;2022-10-26T08:16:07;12.60;;;1.33;;
4278;SDS011;2153;47.744;10.580;2022-10-26T08:18:34;15.07;;;1.40;;
4278;SDS011;2153;47.744;10.580;2022-10-26T08:21:01;16.03;;;1.63;;
4278;SDS011;2153;47.744;10.580;2022-10-26T08:23:31;14.73;;;1.67;;
4278;SDS011;2153;47.744;10.580;2022-10-26T08:25:58;11.70;;;1.30;;
4278;SDS011;2153;47.744;10.580;2022-10-26T08:28:25;14.10;;;2.00;;
4278;SDS011;2153;47.744;10.580;2022-10-26T08:30:52;16.10;;;2.40;;
4278;SDS011;2153;47.744;10.580;2022-10-26T08:33:19;12.73;;;1.70;;
4278;SDS011;2153;47.744;10.580;2022-10-26T08:35:47;11.50;;;1.30;;
4278;SDS011;2153;47.744;10.580;2022-10-26T08:38:14;15.37;;;1.70;;
4278;SDS011;2153;47.744;10.580;2022-10-26T08:40:42;15.97;;;1.73;;
4278;SDS011;2153;47.744;10.580;2022-10-26T08:43:11;15.60;;;1.90;;
4278;SDS011;2153;47.744;10.580;2022-10-26T08:45:44;15.43;;;1.70;;
4278;SDS011;2153;47.744;10.580;2022-10-26T08:48:16;14.70;;;1.50;;
4278;SDS011;2153;47.744;10.580;2022-10-26T08:50:47;12.67;;;1.60;;
4278;SDS011;2153;47.744;10.580;2022-10-26T08:53:18;12.40;;;1.27;;
4278;SDS011;2153;47.744;10.580;2022-10-26T08:55:51;14.60;;;1.67;;
4278;SDS011;2153;47.744;10.580;2022-10-26T08:58:22;13.37;;;2.00;;
4278;SDS011;2153;47.744;10.580;2022-10-26T09:00:53;18.77;;;1.90;;
4278;SDS011;2153;47.744;10.580;2022-10-26T09:03:19;16.40;;;1.40;;
4278;SDS011;2153;47.744;10.580;2022-10-26T09:05:49;14.93;;;2.50;;
4278;SDS011;2153;47.744;10.580;2022-10-26T09:08:27;15.13;;;1.40;;
4278;SDS011;2153;47.744;10.580;2022-10-26T09:11:04;22.30;;;2.23;;
4278;SDS011;2153;47.744;10.580;2022-10-26T09:13:39;14.73;;;1.80;;
4278;SDS011;2153;47.744;10.580;2022-10-26T09:16:18;20.20;;;2.00;;
4278;SDS011;2153;47.744;10.580;2022-10-26T09:18:54;13.33;;;1.40;;
4278;SDS011;2153;47.744;10.580;2022-10-26T09:21:31;14.20;;;1.80;;
4278;SDS011;2153;47.744;10.580;2022-10-26T09:24:08;14.60;;;2.03;;
4278;SDS011;2153;47.744;10.580;2022-10-26T09:26:43;15.63;;;2.27;;
4278;SDS011;2153;47.744;10.580;2022-10-26T09:29:19;13.73;;;1.50;;
4278;SDS011;2153;47.744;10.580;2022-10-26T09:31:50;13.50;;;2.00;;
4278;SDS011;2153;47.744;10.580;2022-10-26T09:34:19;15.47;;;2.00;;
4278;SDS011;2153;47.744;10.580;2022-10-26T09:36:52;14.80;;;1.73;;
4278;SDS011;2153;47.744;10.580;2022-10-26T09:39:21;13.50;;;1.93;;
4278;SDS011;2153;47.744;10.580;2022-10-26T09:41:56;16.67;;;2.67;;
4278;SDS011;2153;47.744;10.580;2022-10-26T09:44:27;15.43;;;2.10;;
4278;SDS011;2153;47.744;10.580;2022-10-26T09:46:57;23.73;;;2.40;;
4278;SDS011;2153;47.744;10.580;2022-10-26T09:49:33;20.10;;;2.10;;
4278;SDS011;2153;47.744;10.580;2022-10-26T09:52:05;13.27;;;1.93;;
4278;SDS011;2153;47.744;10.580;2022-10-26T09:54:35;14.33;;;2.17;;
4278;SDS011;2153;47.744;10.580;2022-10-26T09:57:03;21.77;;;2.13;;
4278;SDS011;2153;47.744;10.580;2022-10-26T09:59:32;21.23;;;2.77;;
4278;SDS011;2153;47.744;10.580;2022-10-26T10:02:09;13.63;;;1.80;;
4278;SDS011;2153;47.744;10.580;2022-10-26T10:04:59;17.27;;;2.30;;
4278;SDS011;2153;47.744;10.580;2022-10-26T10:07:26;17.30;;;2.00;;
4278;SDS011;2153;47.744;10.580;2022-10-26T10:10:06;15.10;;;2.00;;
4278;SDS011;2153;47.744;10.580;2022-10-26T10:12:36;17.67;;;2.37;;
4278;SDS011;2153;47.744;10.580;2022-10-26T10:15:03;17.90;;;1.90;;
4278;SDS011;2153;47.744;10.580;2022-10-26T10:17:30;15.03;;;1.70;;
4278;SDS011;2153;47.744;10.580;2022-10-26T10:20:05;12.50;;;2.10;;
4278;SDS011;2153;47.744;10.580;2022-10-26T10:22:36;18.80;;;2.30;;
4278;SDS011;2153;47.744;10.580;2022-10-26T10:25:22;14.40;;;2.10;;
4278;SDS011;2153;47.744;10.580;2022-10-26T10:27:59;17.37;;;1.83;;
4278;SDS011;2153;47.744;10.580;2022-10-26T10:30:27;13.47;;;2.03;;
4278;SDS011;2153;47.744;10.580;2022-10-26T10:33:06;17.87;;;2.17;;
4278;SDS011;2153;47.744;10.580;2022-10-26T10:35:36;22.70;;;2.00;;
4278;SDS011;2153;47.744;10.580;2022-10-26T10:38:05;14.37;;;1.80;;
4278;SDS011;2153;47.744;10.580;2022-10-26T10:40:32;15.17;;;1.93;;
4278;SDS011;2153;47.744;10.580;2022-10-26T10:43:05;13.90;;;1.83;;
4278;SDS011;2153;47.744;10.580;2022-10-26T10:45:39;15.70;;;2.00;;
4278;SDS011;2153;47.744;10.580;2022-10-26T10:48:12;14.63;;;1.73;;
4278;SDS011;2153;47.744;10.580;2022-10-26T10:50:49;17.97;;;2.17;;
4278;SDS011;2153;47.744;10.580;2022-10-26T10:53:19;13.43;;;1.53;;
4278;SDS011;2153;47.744;10.580;2022-10-26T10:55:54;17.60;;;2.40;;
4278;SDS011;2153;47.744;10.580;2022-10-26T10:58:49;18.30;;;1.90;;
4278;SDS011;2153;47.744;10.580;2022-10-26T11:01:27;13.83;;;2.00;;
4278;SDS011;2153;47.744;10.580;2022-10-26T11:04:03;15.87;;;1.93;;
4278;SDS011;2153;47.744;10.580;2022-10-26T11:06:46;17.27;;;1.80;;
4278;SDS011;2153;47.744;10.580;2022-10-26T11:09:15;19.93;;;1.50;;
4278;SDS011;2153;47.744;10.580;2022-10-26T11:11:45;19.23;;;2.30;;
4278;SDS011;2153;47.744;10.580;2022-10-26T11:14:17;18.67;;;1.67;;
4278;SDS011;2153;47.744;10.580;2022-10-26T11:16:49;20.57;;;2.47;;
4278;SDS011;2153;47.744;10.580;2022-10-26T11:19:21;18.67;;;2.10;;
4278;SDS011;2153;47.744;10.580;2022-10-26T11:21:53;14.30;;;1.70;;
4278;SDS011;2153;47.744;10.580;2022-10-26T11:24:21;18.53;;;1.50;;
4278;SDS011;2153;47.744;10.580;2022-10-26T11:26:52;16.23;;;1.57;;
4278;SDS011;2153;47.744;10.580;2022-10-26T11:29:30;15.70;;;1.60;;
4278;SDS011;2153;47.744;10.580;2022-10-26T11:32:02;20.57;;;1.57;;
4278;SDS011;2153;47.744;10.580;2022-10-26T11:34:35;13.60;;;1.60;;
4278;SDS011;2153;47.744;10.580;2022-10-26T11:37:07;20.17;;;2.10;;
4278;SDS011;2153;47.744;10.580;2022-10-26T11:39:42;17.53;;;1.27;;
4278;SDS011;2153;47.744;10.580;2022-10-26T11:42:14;19.50;;;1.77;;
4278;SDS011;2153;47.744;10.580;2022-10-26T11:44:52;16.97;;;1.60;;
4278;SDS011;2153;47.744;10.580;2022-10-26T11:47:27;14.60;;;1.93;;
4278;SDS011;2153;47.744;10.580;2022-10-26T11:50:00;13.97;;;1.60;;
4278;SDS011;2153;47.744;10.580;2022-10-26T11:52:33;17.70;;;1.70;;
4278;SDS011;2153;47.744;10.580;2022-10-26T11:55:04;17.87;;;1.60;;
4278;SDS011;2153;47.744;10.580;2022-10-26T11:57:35;18.30;;;2.10;;
4278;SDS011;2153;47.744;10.580;2022-10-26T12:00:05;14.40;;;1.73;;
4278;SDS011;2153;47.744;10.580;2022-10-26T12:02:36;21.87;;;1.90;;
4278;SDS011;2153;47.744;10.580;2022-10-26T12:05:07;14.87;;;1.80;;
4278;SDS011;2153;47.744;10.580;2022-10-26T12:07:45;15.03;;;1.87;;
4278;SDS011;2153;47.744;10.580;2022-10-26T12:10:20;15.27;;;1.90;;
4278;SDS011;2153;47.744;10.580;2022-10-26T12:12:50;14.70;;;1.93;;
4278;SDS011;2153;47.744;10.580;2022-10-26T12:15:25;13.47;;;1.70;;
4278;SDS011;2153;47.744;10.580;2022-10-26T12:18:00;18.17;;;2.00;;
4278;SDS011;2153;47.744;10.580;2022-10-26T12:23:28;15.50;;;2.07;;
4278;SDS011;2153;47.744;10.580;2022-10-26T12:29:12;18.67;;;1.77;;
4278;SDS011;2153;47.744;10.580;2022-10-26T12:31:56;18.83;;;2.37;;
4278;SDS011;2153;47.744;10.580;2022-10-26T12:34:24;15.50;;;2.57;;
4278;SDS011;2153;47.744;10.580;2022-10-26T12:37:21;18.60;;;3.10;;
4278;SDS011;2153;47.744;10.580;2022-10-26T12:39:49;22.70;;;2.33;;
4278;SDS011;2153;47.744;10.580;2022-10-26T12:42:27;18.80;;;3.07;;
4278;SDS011;2153;47.744;10.580;2022-10-26T12:45:05;19.43;;;2.50;;
4278;SDS011;2153;47.744;10.580;2022-10-26T12:48:00;23.10;;;3.27;;
4278;SDS011;2153;47.744;10.580;2022-10-26T12:50:29;24.73;;;2.67;;
4278;SDS011;2153;47.744;10.580;2022-10-26T12:52:55;19.57;;;3.27;;
4278;SDS011;2153;47.744;10.580;2022-10-26T12:55:34;20.50;;;2.20;;
4278;SDS011;2153;47.744;10.580;2022-10-26T13:01:28;16.40;;;2.73;;
4278;SDS011;2153;47.744;10.580;2022-10-26T13:04:40;19.73;;;3.53;;
4278;SDS011;2153;47.744;10.580;2022-10-26T13:07:21;23.97;;;2.63;;
4278;SDS011;2153;47.744;10.580;2022-10-26T13:09:53;17.93;;;2.60;;
4278;SDS011;2153;47.744;10.580;2022-10-26T13:12:25;23.30;;;2.17;;
4278;SDS011;2153;47.744;10.580;2022-10-26T13:14:56;18.33;;;2.50;;
4278;SDS011;2153;47.744;10.580;2022-10-26T13:17:26;27.90;;;3.40;;
4278;SDS011;2153;47.744;10.580;2022-10-26T13:19:57;26.50;;;3.03;;
4278;SDS011;2153;47.744;10.580;2022-10-26T13:22:26;22.13;;;3.03;;
4278;SDS011;2153;47.744;10.580;2022-10-26T13:24:54;18.40;;;3.07;;
4278;SDS011;2153;47.744;10.580;2022-10-26T13:27:41;19.10;;;2.60;;
4278;SDS011;2153;47.744;10.580;2022-10-26T13:33:22;21.53;;;2.60;;
4278;SDS011;2153;47.744;10.580;2022-10-26T13:35:55;21.67;;;3.93;;
4278;SDS011;2153;47.744;10.580;2022-10-26T13:38:26;21.50;;;3.10;;
4278;SDS011;2153;47.744;10.580;2022-10-26T13:41:06;19.20;;;2.57;;
4278;SDS011;2153;47.744;10.580;2022-10-26T13:43:40;20.73;;;2.77;;
4278;SDS011;2153;47.744;10.580;2022-10-26T13:46:12;17.20;;;3.20;;
4278;SDS011;2153;47.744;10.580;2022-10-26T13:48:49;31.20;;;2.93;;
4278;SDS011;2153;47.744;10.580;2022-10-26T13:51:20;15.63;;;2.80;;
4278;SDS011;2153;47.744;10.580;2022-10-26T13:53:50;22.90;;;3.80;;
4278;SDS011;2153;47.744;10.580;2022-10-26T13:56:24;25.53;;;3.13;;
4278;SDS011;2153;47.744;10.580;2022-10-26T13:58:56;23.37;;;4.70;;
4278;SDS011;2153;47.744;10.580;2022-10-26T14:01:27;24.63;;;3.23;;
4278;SDS011;2153;47.744;10.580;2022-10-26T14:03:54;20.33;;;2.90;;
4278;SDS011;2153;47.744;10.580;2022-10-26T14:06:25;20.50;;;2.50;;
4278;SDS011;2153;47.744;10.580;2022-10-26T14:08:54;23.70;;;2.47;;
4278;SDS011;2153;47.744;10.580;2022-10-26T14:11:26;21.40;;;3.10;;
4278;SDS011;2153;47.744;10.580;2022-10-26T14:13:58;24.00;;;2.93;;
4278;SDS011;2153;47.744;10.580;2022-10-26T14:16:27;24.00;;;2.80;;
4278;SDS011;2153;47.744;10.580;2022-10-26T14:18:56;23.10;;;2.57;;
4278;SDS011;2153;47.744;10.580;2022-10-26T14:21:24;23.30;;;3.30;;
4278;SDS011;2153;47.744;10.580;2022-10-26T14:23:52;21.00;;;2.90;;
4278;SDS011;2153;47.744;10.580;2022-10-26T14:26:22;17.17;;;2.43;;
4278;SDS011;2153;47.744;10.580;2022-10-26T14:28:51;19.83;;;3.23;;
4278;SDS011;2153;47.744;10.580;2022-10-26T14:31:20;16.47;;;2.60;;
4278;SDS011;2153;47.744;10.580;2022-10-26T14:33:48;25.93;;;3.10;;
4278;SDS011;2153;47.744;10.580;2022-10-26T14:36:16;17.83;;;3.10;;
4278;SDS011;2153;47.744;10.580;2022-10-26T14:38:48;17.73;;;2.30;;
4278;SDS011;2153;47.744;10.580;2022-10-26T14:41:19;16.30;;;3.20;;
4278;SDS011;2153;47.744;10.580;2022-10-26T14:43:48;15.90;;;2.40;;
4278;SDS011;2153;47.744;10.580;2022-10-26T14:46:15;21.23;;;2.73;;
4278;SDS011;2153;47.744;10.580;2022-10-26T14:48:49;19.60;;;2.97;;
4278;SDS011;2153;47.744;10.580;2022-10-26T14:51:19;18.13;;;2.80;;
4278;SDS011;2153;47.744;10.580;2022-10-26T14:53:48;28.67;;;3.13;;
4278;SDS011;2153;47.744;10.580;2022-10-26T14:56:19;20.30;;;3.00;;
4278;SDS011;2153;47.744;10.580;2022-10-26T14:58:47;18.43;;;3.00;;
4278;SDS011;2153;47.744;10.580;2022-10-26T15:01:15;19.03;;;2.33;;
4278;SDS011;2153;47.744;10.580;2022-10-26T15:03:57;22.43;;;3.43;;
4278;SDS011;2153;47.744;10.580;2022-10-26T15:06:37;20.70;;;3.53;;
4278;SDS011;2153;47.744;10.580;2022-10-26T15:12:03;22.60;;;2.90;;
4278;SDS011;2153;47.744;10.580;2022-10-26T15:14:30;19.43;;;2.47;;
4278;SDS011;2153;47.744;10.580;2022-10-26T15:16:58;19.20;;;4.00;;
4278;SDS011;2153;47.744;10.580;2022-10-26T15:19:26;24.87;;;4.00;;
4278;SDS011;2153;47.744;10.580;2022-10-26T15:21:53;20.73;;;3.80;;
4278;SDS011;2153;47.744;10.580;2022-10-26T15:24:24;26.97;;;3.43;;
4278;SDS011;2153;47.744;10.580;2022-10-26T15:26:55;21.57;;;3.80;;
4278;SDS011;2153;47.744;10.580;2022-10-26T15:29:39;19.43;;;3.07;;
4278;SDS011;2153;47.744;10.580;2022-10-26T15:32:27;20.60;;;3.00;;